createdAt,value
2022-08-23T00:01:31.147Z,100809.63
2022-08-23T00:04:02.108Z,100809.84
2022-08-23T00:06:29.944Z,100807.75
2022-08-23T00:08:57.619Z,100810.69
2022-08-23T00:11:31.472Z,100807.41
2022-08-23T00:14:01.122Z,100799.81
2022-08-23T00:16:28.533Z,100799.81
2022-08-23T00:18:55.842Z,100801.69
2022-08-23T00:21:23.621Z,100811.78
2022-08-23T00:23:51.354Z,100801.53
2022-08-23T00:26:20.867Z,100806.47
2022-08-23T00:28:49.966Z,100808.38
2022-08-23T00:31:18.844Z,100805.69
2022-08-23T00:33:46.157Z,100816.16
2022-08-23T00:36:13.205Z,100810.78
2022-08-23T00:38:40.598Z,100814.28
2022-08-23T00:41:07.910Z,100804.19
2022-08-23T00:43:59.852Z,100806.63
2022-08-23T00:47:25.177Z,100804.56
2022-08-23T00:50:19.253Z,100801.06
2022-08-23T00:53:06.298Z,100806.41
2022-08-23T00:55:34.830Z,100810.75
2022-08-23T00:58:02.435Z,100807.84
2022-08-23T01:00:30.607Z,100815.63
2022-08-23T01:02:58.392Z,100806.56
2022-08-23T01:05:35.109Z,100814.59
2022-08-23T01:08:02.493Z,100811.94
2022-08-23T01:10:50.790Z,100813.56
2022-08-23T01:13:27.340Z,100817.28
2022-08-23T01:16:01.580Z,100813.19
2022-08-23T01:18:30.515Z,100815.28
2022-08-23T01:21:08.013Z,100811.56
2022-08-23T01:23:43.932Z,100811.56
2022-08-23T01:26:12.564Z,100807.03
2022-08-23T01:28:41.196Z,100806.00
2022-08-23T01:31:15.172Z,100803.31
2022-08-23T01:33:43.303Z,100798.75
2022-08-23T01:36:14.921Z,100803.53
2022-08-23T01:38:41.990Z,100805.38
2022-08-23T01:41:09.712Z,100807.25
2022-08-23T01:43:37.241Z,100810.53
2022-08-23T01:46:13.685Z,100806.78
2022-08-23T01:48:41.112Z,100798.19
2022-08-23T01:51:08.406Z,100799.81
2022-08-23T01:53:36.740Z,100798.19
2022-08-23T01:56:05.660Z,100801.88
2022-08-23T01:58:33.888Z,100800.03
2022-08-23T02:01:02.233Z,100796.09
2022-08-23T02:03:29.530Z,100805.38
2022-08-23T02:05:57.678Z,100806.63
2022-08-23T02:08:43.695Z,100802.56
2022-08-23T02:11:13.909Z,100812.44
2022-08-23T02:13:41.595Z,100808.94
2022-08-23T02:16:09.294Z,100806.25
2022-08-23T02:18:42.094Z,100805.22
2022-08-23T02:21:10.480Z,100804.63
2022-08-23T02:23:37.686Z,100813.72
2022-08-23T02:26:05.101Z,100813.91
2022-08-23T02:28:32.495Z,100806.72
2022-08-23T02:30:59.499Z,100815.31
2022-08-23T02:33:26.677Z,100808.13
2022-08-23T02:35:54.152Z,100804.63
2022-08-23T02:38:21.506Z,100807.31
2022-08-23T02:41:00.983Z,100800.34
2022-08-23T02:43:29.699Z,100803.44
2022-08-23T02:45:56.824Z,100814.13
2022-08-23T02:48:24.034Z,100817.41
2022-08-23T02:50:53.462Z,100814.50
2022-08-23T02:53:20.502Z,100817.19
2022-08-23T02:55:48.700Z,100811.81
2022-08-23T02:58:15.749Z,100820.91
2022-08-23T03:00:47.418Z,100826.28
2022-08-23T03:03:14.367Z,100827.09
2022-08-23T03:05:41.378Z,100825.81
2022-08-23T03:08:08.580Z,100826.44
2022-08-23T03:10:35.467Z,100829.94
2022-08-23T03:13:03.014Z,100829.31
2022-08-23T03:15:30.292Z,100837.13
2022-08-23T03:17:57.322Z,100837.13
2022-08-23T03:20:24.531Z,100832.59
2022-08-23T03:22:54.915Z,100836.88
2022-08-23T03:25:22.451Z,100831.53
2022-08-23T03:27:49.510Z,100843.06
2022-08-23T03:30:19.339Z,100838.53
2022-08-23T03:32:48.984Z,100830.72
2022-08-23T03:35:16.804Z,100827.88
2022-08-23T03:37:43.746Z,100831.63
2022-08-23T03:40:11.325Z,100837.78
2022-08-23T03:42:38.318Z,100828.69
2022-08-23T03:45:05.755Z,100829.53
2022-08-23T03:47:32.693Z,100829.53
2022-08-23T03:49:59.716Z,100833.03
2022-08-23T03:52:26.664Z,100834.88
2022-08-23T03:54:53.739Z,100833.22
2022-08-23T03:57:20.850Z,100836.16
2022-08-23T03:59:49.136Z,100846.59
2022-08-23T04:02:16.722Z,100845.81
2022-08-23T04:04:43.833Z,100836.97
2022-08-23T04:07:10.791Z,100843.16
2022-08-23T04:09:37.745Z,100841.03
2022-08-23T04:12:05.144Z,100843.50
2022-08-23T04:14:45.881Z,100846.19
2022-08-23T04:17:13.701Z,100841.03
2022-08-23T04:19:40.947Z,100840.00
2022-08-23T04:22:17.037Z,100840.84
2022-08-23T04:24:45.016Z,100841.03
2022-08-23T04:27:13.336Z,100837.53
2022-08-23T04:29:40.895Z,100837.34
2022-08-23T04:32:11.470Z,100839.81
2022-08-23T04:34:40.438Z,100837.72
2022-08-23T04:37:09.350Z,100840.38
2022-08-23T04:40:02.188Z,100838.53
2022-08-23T04:42:30.191Z,100834.22
2022-08-23T04:44:57.921Z,100832.81
2022-08-23T04:47:25.085Z,100833.03
2022-08-23T04:49:52.182Z,100841.03
2022-08-23T04:52:19.793Z,100856.88
2022-08-23T04:54:47.208Z,100852.34
2022-08-23T04:57:15.746Z,100858.53
2022-08-23T04:59:43.582Z,100858.53
2022-08-23T05:02:10.731Z,100863.06
2022-08-23T05:04:37.735Z,100867.38
2022-08-23T05:07:04.761Z,100869.81
2022-08-23T05:09:31.772Z,100871.91
2022-08-23T05:11:58.860Z,100875.00
2022-08-23T05:14:25.913Z,100883.03
2022-08-23T05:16:53.009Z,100883.03
2022-08-23T05:19:19.948Z,100885.94
2022-08-23T05:21:47.006Z,100890.47
2022-08-23T05:24:14.188Z,100890.22
2022-08-23T05:26:44.356Z,100895.59
2022-08-23T05:29:11.408Z,100881.78
2022-08-23T05:31:38.297Z,100890.41
2022-08-23T05:34:05.381Z,100891.22
2022-08-23T05:36:48.911Z,100893.91
2022-08-23T05:39:32.802Z,100895.75
2022-08-23T05:42:04.676Z,100901.91
2022-08-23T05:44:34.478Z,100895.75
2022-08-23T05:47:10.173Z,100901.72
2022-08-23T05:49:38.383Z,100909.09
2022-08-23T05:52:07.083Z,100911.53
2022-08-23T05:54:34.783Z,100905.59
2022-08-23T05:57:02.424Z,100918.13
2022-08-23T05:59:29.447Z,100917.56
2022-08-23T06:01:57.307Z,100918.59
2022-08-23T06:04:24.170Z,100925.59
2022-08-23T06:06:51.084Z,100921.06
2022-08-23T06:09:18.718Z,100916.75
2022-08-23T06:11:47.146Z,100911.97
2022-08-23T06:14:14.775Z,100918.13
2022-08-23T06:16:45.954Z,100909.28
2022-08-23T06:19:13.968Z,100918.75
2022-08-23T06:21:41.941Z,100915.25
2022-08-23T06:24:09.084Z,100901.66
2022-08-23T06:26:42.582Z,100907.59
2022-08-23T06:29:12.385Z,100907.19
2022-08-23T06:31:45.603Z,100905.91
2022-08-23T06:34:34.673Z,100909.19
2022-08-23T06:37:12.356Z,100905.09
2022-08-23T06:39:39.617Z,100920.31
2022-08-23T06:42:34.531Z,100916.41
2022-08-23T06:44:55.682Z,100916.41
2022-08-23T06:47:23.083Z,100925.00
2022-08-23T06:49:57.371Z,100932.25
2022-08-23T06:52:24.904Z,100923.19
2022-08-23T06:54:53.280Z,100920.31
2022-08-23T06:57:20.775Z,100917.16
2022-08-23T06:59:50.140Z,100913.25
2022-08-23T07:02:17.428Z,100918.16
2022-08-23T07:04:44.539Z,100919.22
2022-08-23T07:07:12.430Z,100923.28
2022-08-23T07:09:40.874Z,100916.09
2022-08-23T07:12:08.159Z,100920.41
2022-08-23T07:14:35.302Z,100930.88
2022-08-23T07:17:03.872Z,100924.28
2022-08-23T07:19:34.618Z,100925.47
2022-08-23T07:22:03.874Z,100930.41
2022-08-23T07:24:33.479Z,100927.63
2022-08-23T07:27:01.657Z,100930.72
2022-08-23T07:29:30.119Z,100936.63
2022-08-23T07:31:58.166Z,100934.31
2022-08-23T07:34:26.508Z,100941.72
2022-08-23T07:36:54.575Z,100942.31
2022-08-23T07:39:23.261Z,100945.13
2022-08-23T07:41:50.202Z,100932.09
2022-08-23T07:44:18.505Z,100935.19
2022-08-23T07:46:48.823Z,100940.69
2022-08-23T07:49:16.346Z,100946.41
2022-08-23T07:51:47.412Z,100941.19
2022-08-23T07:54:15.001Z,100943.59
2022-08-23T07:56:42.390Z,100951.13
2022-08-23T07:59:10.299Z,100955.00
2022-08-23T08:01:38.425Z,100947.78
2022-08-23T08:04:06.559Z,100954.53
2022-08-23T08:06:43.384Z,100960.03
2022-08-23T08:09:11.416Z,100957.75
2022-08-23T08:11:41.544Z,100964.72
2022-08-23T08:14:09.688Z,100971.72
2022-08-23T08:16:44.517Z,100973.56
2022-08-23T08:19:15.015Z,100968.81
2022-08-23T08:21:45.814Z,100967.53
2022-08-23T08:24:14.600Z,100964.84
2022-08-23T08:26:43.256Z,100970.47
2022-08-23T08:29:13.417Z,100957.28
2022-08-23T08:31:42.762Z,100967.78
2022-08-23T08:34:13.918Z,100974.53
2022-08-23T08:36:45.786Z,100961.50
2022-08-23T08:39:16.715Z,100971.19
2022-08-23T08:42:07.905Z,100975.50
2022-08-23T08:45:06.740Z,100983.75
2022-08-23T08:47:49.456Z,100985.06
2022-08-23T08:50:37.761Z,100986.69
2022-08-23T08:53:13.723Z,100992.06
2022-08-23T08:55:49.421Z,100992.06
2022-08-23T08:58:30.896Z,100991.47
2022-08-23T09:00:58.989Z,100989.81
2022-08-23T09:03:32.192Z,100998.25
2022-08-23T09:06:14.776Z,100992.41
2022-08-23T09:08:49.877Z,100997.31
2022-08-23T09:11:51.070Z,100991.28
2022-08-23T09:15:03.021Z,100998.53
2022-08-23T09:17:56.979Z,100999.69
2022-08-23T09:20:32.972Z,101005.78
2022-08-23T09:23:35.628Z,100998.94
2022-08-23T09:26:05.964Z,101001.16
2022-08-23T09:28:36.589Z,101006.88
2022-08-23T09:31:04.646Z,100995.47
2022-08-23T09:33:41.859Z,100988.63
2022-08-23T09:36:14.825Z,100989.81
2022-08-23T09:39:30.840Z,100995.06
2022-08-23T09:41:58.285Z,100986.81
2022-08-23T09:44:41.387Z,100991.72
2022-08-23T09:47:15.490Z,100990.09
2022-08-23T09:49:48.585Z,100991.94
2022-08-23T09:52:34.701Z,100993.34
2022-08-23T09:55:26.994Z,100992.91
2022-08-23T09:57:53.932Z,100996.75
2022-08-23T10:00:31.213Z,100997.91
2022-08-23T10:03:26.297Z,100989.16
2022-08-23T10:05:59.559Z,100989.56
2022-08-23T10:08:33.809Z,100985.56
2022-08-23T10:11:06.673Z,100993.97
2022-08-23T10:13:37.270Z,101000.16
2022-08-23T10:16:42.380Z,100988.97
2022-08-23T10:19:18.445Z,100991.19
2022-08-23T10:22:08.700Z,100979.41
2022-08-23T10:24:46.136Z,100978.38
2022-08-23T10:27:37.613Z,100989.44
2022-08-23T10:30:12.971Z,100985.47
2022-08-23T10:33:08.574Z,100983.16
2022-08-23T10:35:50.351Z,100970.66
2022-08-23T10:38:36.233Z,100984.78
2022-08-23T10:41:33.955Z,100975.13
2022-08-23T10:44:35.387Z,100979.06
2022-08-23T10:47:30.891Z,100977.31
2022-08-23T10:50:03.447Z,100984.69
2022-08-23T10:52:33.822Z,100980.13
2022-08-23T10:55:17.241Z,100980.59
2022-08-23T10:57:49.222Z,100980.84
2022-08-23T11:00:21.760Z,100982.81
2022-08-23T11:02:50.006Z,100978.97
2022-08-23T11:05:28.126Z,100979.88
2022-08-23T11:08:01.242Z,100992.72
2022-08-23T11:10:35.273Z,100981.59
2022-08-23T11:13:21.632Z,100986.13
2022-08-23T11:16:01.006Z,100986.50
2022-08-23T11:18:42.601Z,100986.03
2022-08-23T11:21:33.610Z,100991.50
2022-08-23T11:24:00.343Z,100986.94
2022-08-23T11:26:27.171Z,100988.81
2022-08-23T11:28:56.725Z,100985.31
2022-08-23T11:31:26.336Z,100984.25
2022-08-23T11:34:01.697Z,100987.28
2022-08-23T11:36:45.136Z,100990.56
2022-08-23T11:39:15.787Z,100986.47
2022-08-23T11:41:56.237Z,100989.88
2022-08-23T11:44:28.249Z,100988.47
2022-08-23T11:46:55.647Z,100985.22
2022-08-23T11:49:28.610Z,100989.53
2022-08-23T11:52:31.987Z,100994.44
2022-08-23T11:55:24.282Z,100989.63
2022-08-23T11:58:25.083Z,100990.78
2022-08-23T12:01:07.861Z,100988.44
2022-08-23T12:03:54.605Z,100996.84
2022-08-23T12:06:51.099Z,101000.09
2022-08-23T12:09:21.338Z,101001.66
2022-08-23T12:11:57.130Z,101001.31
2022-08-23T12:14:33.105Z,100995.44
2022-08-23T12:17:03.647Z,100996.84
2022-08-23T12:19:40.454Z,101000.09
2022-08-23T12:22:16.992Z,100991.81
2022-08-23T12:25:00.808Z,100996.69
2022-08-23T12:27:48.802Z,101000.53
2022-08-23T12:30:26.220Z,100997.03
2022-08-23T12:33:21.390Z,101007.00
2022-08-23T12:36:16.314Z,100999.97
2022-08-23T12:39:09.494Z,100999.59
2022-08-23T12:41:54.208Z,101000.72
2022-08-23T12:44:24.036Z,101001.31
2022-08-23T12:46:51.715Z,101004.00
2022-08-23T12:49:30.216Z,101001.81
2022-08-23T12:52:01.391Z,100999.34
2022-08-23T12:54:46.684Z,101009.78
2022-08-23T12:57:26.108Z,101006.50
2022-08-23T13:00:17.224Z,101002.78
2022-08-23T13:02:56.663Z,101001.72
2022-08-23T13:05:32.363Z,101005.09
2022-08-23T13:08:02.533Z,101007.22
2022-08-23T13:10:29.867Z,101009.34
2022-08-23T13:12:57.094Z,101006.91
2022-08-23T13:15:47.689Z,101002.56
2022-08-23T13:18:32.746Z,100999.06
2022-08-23T13:21:18.700Z,101006.53
2022-08-23T13:23:47.874Z,100997.91
2022-08-23T13:26:49.074Z,101009.00
2022-08-23T13:29:16.080Z,101007.97
2022-08-23T13:31:53.629Z,101007.47
2022-08-23T13:34:48.910Z,101012.38
2022-08-23T13:37:19.292Z,101007.78
2022-08-23T13:39:58.757Z,101009.19
2022-08-23T13:42:38.482Z,101002.50
2022-08-23T13:45:31.008Z,101006.00
2022-08-23T13:48:02.758Z,101007.66
2022-08-23T13:50:34.639Z,100999.03
2022-08-23T13:53:17.454Z,101002.28
2022-08-23T13:55:51.904Z,100999.34
2022-08-23T13:58:34.099Z,101009.06
2022-08-23T14:01:03.453Z,100995.34
2022-08-23T14:03:31.740Z,100999.22
2022-08-23T14:05:58.536Z,101006.78
2022-08-23T14:08:25.378Z,101002.47
2022-08-23T14:10:52.543Z,101002.47
2022-08-23T14:13:29.421Z,101006.78
2022-08-23T14:21:38.049Z,101000.81
2022-08-23T14:24:05.352Z,100993.56
2022-08-23T14:26:50.257Z,100997.44
2022-08-23T14:29:23.322Z,100998.00
2022-08-23T14:31:52.146Z,100994.47
2022-08-23T14:34:19.720Z,100992.06
2022-08-23T14:39:36.390Z,100990.50
2022-08-23T14:42:04.626Z,100995.63
2022-08-23T14:44:35.908Z,100994.34
2022-08-23T14:47:04.537Z,100983.06
2022-08-23T14:49:31.382Z,100978.28
2022-08-23T14:51:58.307Z,100978.84
2022-08-23T14:54:26.377Z,100981.66
2022-08-23T14:56:54.056Z,100986.31
2022-08-23T14:59:21.434Z,100972.94
2022-08-23T15:01:50.885Z,100981.34
2022-08-23T15:04:20.461Z,100976.78
2022-08-23T15:07:16.122Z,100978.31
2022-08-23T15:09:36.821Z,100978.72
2022-08-23T15:14:50.725Z,100976.94
2022-08-23T15:17:17.808Z,100980.72
2022-08-23T15:19:44.694Z,100977.69
2022-08-23T15:22:18.350Z,100976.88
2022-08-23T15:24:48.420Z,100973.84
2022-08-23T15:27:15.206Z,100971.16
2022-08-23T15:29:42.059Z,100970.69
2022-08-23T15:32:10.163Z,100968.31
2022-08-23T15:34:40.127Z,100965.41
2022-08-23T15:37:13.651Z,100959.50
2022-08-23T15:39:42.023Z,100965.75
2022-08-23T15:42:08.887Z,100963.06
2022-08-23T15:44:35.718Z,100960.91
2022-08-23T15:47:05.203Z,100968.28
2022-08-23T15:49:36.549Z,100963.47
2022-08-23T15:52:04.930Z,100966.47
2022-08-23T15:54:32.005Z,100957.69
2022-08-23T15:56:59.254Z,100963.06
2022-08-23T15:59:26.173Z,100961.97
2022-08-23T16:01:53.494Z,100954.50
2022-08-23T16:04:20.343Z,100961.25
2022-08-23T16:06:48.179Z,100962.06
2022-08-23T16:09:21.152Z,100966.41
2022-08-23T16:11:48.522Z,100958.56
2022-08-23T16:14:15.646Z,100952.84
2022-08-23T16:16:43.872Z,100954.72
2022-08-23T16:19:11.076Z,100958.75
2022-08-23T16:21:38.231Z,100949.59
2022-08-23T16:24:06.986Z,100956.03
2022-08-23T16:26:43.394Z,100958.75
2022-08-23T16:29:14.658Z,100943.13
2022-08-23T16:31:41.981Z,100951.22
2022-08-23T16:34:12.763Z,100946.66
2022-08-23T16:36:42.136Z,100941.84
2022-08-23T16:39:10.985Z,100945.91
2022-08-23T16:41:37.991Z,100944.28
2022-08-23T16:44:05.311Z,100948.03
2022-08-23T16:46:44.244Z,100949.41
2022-08-23T16:49:12.861Z,100947.53
2022-08-23T16:51:39.931Z,100943.78
2022-08-23T16:54:08.494Z,100946.50
2022-08-23T16:56:41.413Z,100947.06
2022-08-23T16:59:10.801Z,100949.19
2022-08-23T17:01:56.665Z,100939.22
2022-08-23T17:04:26.949Z,100944.63
2022-08-23T17:06:58.434Z,100942.75
2022-08-23T17:09:27.297Z,100950.56
2022-08-23T17:11:55.173Z,100946.31
2022-08-23T17:14:24.261Z,100949.56
2022-08-23T17:16:51.378Z,100948.28
2022-08-23T17:19:18.254Z,100948.00
2022-08-23T17:21:45.328Z,100953.97
2022-08-23T17:24:12.233Z,100946.72
2022-08-23T17:26:42.887Z,100961.47
2022-08-23T17:29:09.917Z,100957.19
2022-08-23T17:31:37.982Z,100956.69
2022-08-23T17:34:06.710Z,100961.84
2022-08-23T17:36:47.881Z,100961.56
2022-08-23T17:39:17.824Z,100971.56
2022-08-23T17:41:45.647Z,100971.78
2022-08-23T17:44:13.731Z,100967.69
2022-08-23T17:46:43.796Z,100969.84
2022-08-23T17:49:11.861Z,100977.84
2022-08-23T17:51:41.249Z,100980.19
2022-08-23T17:54:10.267Z,100979.31
2022-08-23T17:56:40.474Z,100980.84
2022-08-23T17:59:09.043Z,100984.63
2022-08-23T18:01:37.273Z,100986.72
2022-08-23T18:04:07.939Z,100985.69
2022-08-23T18:06:39.902Z,100988.38
2022-08-23T18:09:07.771Z,100994.31
2022-08-23T18:11:35.892Z,100996.44
2022-08-23T18:14:03.486Z,100994.81
2022-08-23T18:16:39.704Z,100998.56
2022-08-23T18:19:11.239Z,101002.06
2022-08-23T18:21:41.352Z,101005.81
2022-08-23T18:24:09.502Z,101011.47
2022-08-23T18:26:58.270Z,101009.25
2022-08-23T18:29:25.470Z,101028.59
2022-08-23T18:31:52.367Z,101020.97
2022-08-23T18:34:19.365Z,101027.88
2022-08-23T18:36:46.477Z,101037.28
2022-08-23T18:39:15.567Z,101024.03
2022-08-23T18:41:42.975Z,101031.78
2022-08-23T18:44:10.457Z,101031.44
2022-08-23T18:46:40.714Z,101036.72
2022-08-23T18:49:08.508Z,101049.88
2022-08-23T18:51:35.995Z,101043.66
2022-08-23T18:54:04.477Z,101049.28
2022-08-23T18:56:40.409Z,101055.38
2022-08-23T18:59:07.517Z,101071.19
2022-08-23T19:01:37.359Z,101062.78
2022-08-23T19:04:06.552Z,101065.94
2022-08-23T19:06:44.143Z,101064.31
2022-08-23T19:09:12.953Z,101076.97
2022-08-23T19:11:41.743Z,101068.53
2022-08-23T19:14:11.055Z,101082.69
2022-08-23T19:16:48.880Z,101087.75
2022-08-23T19:19:16.937Z,101085.53
2022-08-23T19:21:44.255Z,101080.63
2022-08-23T19:24:11.645Z,101078.41
2022-08-23T19:26:48.046Z,101085.91
2022-08-23T19:29:16.480Z,101093.38
2022-08-23T19:31:47.097Z,101093.84
2022-08-23T19:34:19.783Z,101089.78
2022-08-23T19:36:56.695Z,101093.72
2022-08-23T19:39:27.713Z,101100.13
2022-08-23T19:41:54.659Z,101101.19
2022-08-23T19:44:22.234Z,101112.66
2022-08-23T19:46:49.688Z,101115.00
2022-08-23T19:49:16.820Z,101115.47
2022-08-23T19:51:45.063Z,101121.91
2022-08-23T19:54:13.488Z,101126.69
2022-08-23T19:56:50.535Z,101128.56
2022-08-23T19:59:24.088Z,101133.38
2022-08-23T20:01:53.527Z,101137.31
2022-08-23T20:04:22.810Z,101136.97
2022-08-23T20:06:50.866Z,101137.22
2022-08-23T20:09:20.469Z,101140.94
2022-08-23T20:11:47.698Z,101136.88
2022-08-23T20:14:15.460Z,101150.19
2022-08-23T20:16:46.159Z,101142.81
2022-08-23T20:19:13.862Z,101145.94
2022-08-23T20:21:42.866Z,101144.34
2022-08-23T20:24:13.718Z,101143.75
2022-08-23T20:26:48.327Z,101148.88
2022-08-23T20:29:19.280Z,101151.56
2022-08-23T20:31:53.686Z,101152.41
2022-08-23T20:34:21.911Z,101145.38
2022-08-23T20:36:53.354Z,101158.81
2022-08-23T20:39:23.830Z,101157.19
2022-08-23T20:41:52.362Z,101162.19
2022-08-23T20:44:21.623Z,101166.97
2022-08-23T20:46:54.151Z,101164.50
2022-08-23T20:49:23.578Z,101158.34
2022-08-23T20:51:51.931Z,101156.69
2022-08-23T20:54:19.704Z,101162.06
2022-08-23T20:56:50.828Z,101169.09
2022-08-23T20:59:18.474Z,101169.44
2022-08-23T21:01:45.918Z,101174.00
2022-08-23T21:04:13.477Z,101173.41
2022-08-23T21:06:47.851Z,101174.91
2022-08-23T21:09:19.654Z,101177.03
2022-08-23T21:11:48.532Z,101175.38
2022-08-23T21:14:18.974Z,101172.69
2022-08-23T21:16:48.227Z,101175.13
2022-08-23T21:19:16.416Z,101160.91
2022-08-23T21:21:43.966Z,101164.63
2022-08-23T21:24:11.955Z,101161.13
2022-08-23T21:26:39.656Z,101159.69
2022-08-23T21:29:09.033Z,101157.25
2022-08-23T21:31:36.522Z,101165.31
2022-08-23T21:34:04.203Z,101159.13
2022-08-23T21:36:39.650Z,101145.91
2022-08-23T21:39:06.556Z,101154.81
2022-08-23T21:41:37.292Z,101147.56
2022-08-23T21:44:06.992Z,101147.56
2022-08-23T21:46:41.272Z,101154.81
2022-08-23T21:49:08.721Z,101154.44
2022-08-23T21:51:39.356Z,101154.19
2022-08-23T21:54:09.121Z,101147.78
2022-08-23T21:56:42.324Z,101149.91
2022-08-23T21:59:12.829Z,101155.50
2022-08-23T22:01:41.796Z,101148.66
2022-08-23T22:04:13.084Z,101147.28
2022-08-23T22:06:45.181Z,101145.28
2022-08-23T22:09:15.461Z,101145.50
2022-08-23T22:11:44.504Z,101151.69
2022-08-23T22:14:17.748Z,101143.03
2022-08-23T22:16:44.755Z,101141.03
2022-08-23T22:19:13.655Z,101146.41
2022-08-23T22:21:40.694Z,101145.56
2022-08-23T22:24:08.289Z,101139.75
2022-08-23T22:26:41.831Z,101140.81
2022-08-23T22:29:09.517Z,101146.63
2022-08-23T22:31:37.347Z,101138.81
2022-08-23T22:34:05.644Z,101145.56
2022-08-23T22:36:42.177Z,101141.84
2022-08-23T22:39:09.394Z,101140.22
2022-08-23T22:41:37.131Z,101143.13
2022-08-23T22:44:05.548Z,101138.00
2022-08-23T22:46:43.593Z,101131.78
2022-08-23T22:49:10.912Z,101135.53
2022-08-23T22:51:38.734Z,101137.84
2022-08-23T22:54:09.664Z,101150.25
2022-08-23T22:56:49.094Z,101140.31
2022-08-23T22:59:18.468Z,101141.59
2022-08-23T23:01:51.197Z,101135.59
2022-08-23T23:04:22.029Z,101142.03
2022-08-23T23:06:51.760Z,101138.53
2022-08-23T23:09:19.139Z,101148.25
2022-08-23T23:11:47.081Z,101142.88
2022-08-23T23:14:16.259Z,101143.91
2022-08-23T23:16:46.628Z,101145.16
2022-08-23T23:19:42.808Z,101143.38
2022-08-23T23:22:13.241Z,101150.03
2022-08-23T23:24:41.034Z,101150.25
2022-08-23T23:27:08.585Z,101151.31
2022-08-23T23:29:36.961Z,101145.13
2022-08-23T23:32:04.797Z,101145.56
2022-08-23T23:34:36.822Z,101143.94
2022-08-23T23:37:04.274Z,101149.53
2022-08-23T23:39:31.525Z,101151.16
2022-08-23T23:41:58.909Z,101153.63
2022-08-23T23:44:31.509Z,101155.28
2022-08-23T23:47:01.812Z,101143.09
2022-08-23T23:49:31.989Z,101144.19
2022-08-23T23:52:01.682Z,101140.69
2022-08-23T23:54:28.897Z,101137.16
2022-08-23T23:56:56.204Z,101133.66
2022-08-23T23:59:23.538Z,101137.38
